Time;durP1;ratioP1;P1;durP2;ratioP2;P2;SDS_P1;SDS_P2;PMS_P1;PMS_P2;Temp;Humidity;BMP_temperature;BMP_pressure;BME280_temperature;BME280_humidity;BME280_pressure;Samples;Min_cycle;Max_cycle;Signal;HPM_P1;HPM_P2
2023/05/21 00:01:39;;;;;;;;;;;13.60;99.90;;;;;;5044844;28;19909;-72
2023/05/21 00:04:07;;;;;;;;;;;13.60;99.90;;;;;;5041023;28;20424;-73
2023/05/21 00:06:36;;;;;;;;;;;13.60;99.90;;;;;;5038708;28;19921;-72
2023/05/21 00:09:03;;;;;;;;;;;13.50;99.90;;;;;;5039091;28;20039;-71
2023/05/21 00:11:28;;;;;;;;;;;13.50;99.90;;;;;;5055827;28;19909;-73
2023/05/21 00:13:54;;;;;;;;;;;13.50;99.90;;;;;;5055915;28;19936;-74
2023/05/21 00:16:20;;;;;;;;;;;13.50;99.90;;;;;;5039106;28;19977;-71
2023/05/21 00:18:46;;;;;;;;;;;13.50;99.90;;;;;;5057743;28;19909;-72
2023/05/21 00:21:12;;;;;;;;;;;13.40;99.90;;;;;;5041864;28;19921;-72
2023/05/21 00:23:40;;;;;;;;;;;13.40;99.90;;;;;;5049307;28;19940;-71
2023/05/21 00:26:05;;;;;;;;;;;13.40;99.90;;;;;;5038317;28;20006;-73
2023/05/21 00:28:31;;;;;;;;;;;13.40;99.90;;;;;;5041701;28;19960;-72
2023/05/21 00:30:56;;;;;;;;;;;13.40;99.90;;;;;;5040455;28;19913;-71
2023/05/21 00:33:25;;;;;;;;;;;13.40;99.90;;;;;;5037507;28;19914;-72
2023/05/21 00:35:51;;;;;;;;;;;13.40;99.90;;;;;;5038164;28;19939;-72
2023/05/21 00:38:17;;;;;;;;;;;13.40;99.90;;;;;;5055744;28;20373;-73
2023/05/21 00:40:43;;;;;;;;;;;13.40;99.90;;;;;;5040046;28;19964;-73
2023/05/21 00:43:09;;;;;;;;;;;13.40;99.90;;;;;;5054899;28;19917;-71
2023/05/21 00:45:35;;;;;;;;;;;13.40;99.90;;;;;;5054201;28;19914;-73
2023/05/21 00:48:03;;;;;;;;;;;13.40;99.90;;;;;;5039850;28;20186;-71
2023/05/21 00:50:29;;;;;;;;;;;13.40;99.90;;;;;;5037992;28;19920;-72
2023/05/21 00:52:55;;;;;;;;;;;13.40;99.90;;;;;;5053465;28;19917;-74
2023/05/21 00:55:20;;;;;;;;;;;13.40;99.90;;;;;;5039368;28;19908;-71
2023/05/21 00:57:46;;;;;;;;;;;13.40;99.90;;;;;;5037209;28;20381;-72
2023/05/21 01:00:13;;;;;;;;;;;13.40;99.90;;;;;;5038687;28;19950;-72
2023/05/21 01:02:38;;;;;;;;;;;13.30;99.90;;;;;;5039367;28;20373;-72
2023/05/21 01:05:05;;;;;;;;;;;13.30;99.90;;;;;;5039369;28;20032;-72
2023/05/21 01:07:33;;;;;;;;;;;13.30;99.90;;;;;;5038492;28;19987;-73
2023/05/21 01:10:00;;;;;;;;;;;13.30;99.90;;;;;;5055865;28;20007;-71
2023/05/21 01:12:26;;;;;;;;;;;13.30;99.90;;;;;;5036638;28;19964;-71
2023/05/21 01:14:52;;;;;;;;;;;13.30;99.90;;;;;;5039381;28;19913;-73
2023/05/21 01:17:19;;;;;;;;;;;13.30;99.90;;;;;;5054683;28;19909;-73
2023/05/21 01:19:45;;;;;;;;;;;13.30;99.90;;;;;;5038850;28;20449;-72
2023/05/21 01:22:13;;;;;;;;;;;13.30;99.90;;;;;;5034933;28;19921;-73
2023/05/21 01:24:38;;;;;;;;;;;13.30;99.90;;;;;;5038451;28;19917;-73
2023/05/21 01:27:06;;;;;;;;;;;13.30;99.90;;;;;;5038859;28;19909;-73
2023/05/21 01:29:32;;;;;;;;;;;13.30;99.90;;;;;;5054248;28;19963;-73
2023/05/21 01:32:00;;;;;;;;;;;13.30;99.90;;;;;;5036854;28;19913;-71
2023/05/21 01:34:31;;;;;;;;;;;13.30;99.90;;;;;;5052286;28;19920;-73
2023/05/21 01:37:06;;;;;;;;;;;13.30;99.90;;;;;;5039779;28;19959;-73
2023/05/21 01:39:34;;;;;;;;;;;13.30;99.90;;;;;;5038589;28;19983;-73
2023/05/21 01:42:02;;;;;;;;;;;13.30;99.90;;;;;;5036896;28;20347;-73
2023/05/21 01:44:28;;;;;;;;;;;13.20;99.90;;;;;;5056018;28;20598;-73
2023/05/21 01:46:55;;;;;;;;;;;13.20;99.90;;;;;;5055693;28;20003;-73
2023/05/21 01:49:21;;;;;;;;;;;13.20;99.90;;;;;;5039900;28;20360;-73
2023/05/21 01:51:47;;;;;;;;;;;13.10;99.90;;;;;;5040049;28;19921;-71
2023/05/21 01:54:13;;;;;;;;;;;13.10;99.90;;;;;;5038106;28;19952;-73
2023/05/21 01:56:39;;;;;;;;;;;13.10;99.90;;;;;;5036339;28;19960;-74
2023/05/21 01:59:04;;;;;;;;;;;13.10;99.90;;;;;;5040512;28;19923;-71
2023/05/21 02:01:30;;;;;;;;;;;13.00;99.90;;;;;;5039122;28;19955;-71
2023/05/21 02:03:56;;;;;;;;;;;13.00;99.90;;;;;;5040951;28;19938;-73
2023/05/21 02:06:22;;;;;;;;;;;13.00;99.90;;;;;;5057152;28;19910;-73
2023/05/21 02:08:48;;;;;;;;;;;13.00;99.90;;;;;;5041135;28;19924;-71
2023/05/21 02:11:13;;;;;;;;;;;13.00;99.90;;;;;;5051951;28;19917;-72
2023/05/21 02:13:41;;;;;;;;;;;13.00;99.90;;;;;;5039019;28;19909;-71
2023/05/21 02:16:10;;;;;;;;;;;13.00;99.90;;;;;;5055270;28;19948;-71
2023/05/21 02:18:36;;;;;;;;;;;13.00;99.90;;;;;;5054313;28;19909;-71
2023/05/21 02:21:02;;;;;;;;;;;13.00;99.90;;;;;;5037392;28;20285;-72
2023/05/21 02:23:27;;;;;;;;;;;13.00;99.90;;;;;;5055489;28;19912;-73
2023/05/21 02:25:53;;;;;;;;;;;13.00;99.90;;;;;;5053788;28;19909;-72
2023/05/21 02:28:20;;;;;;;;;;;13.10;99.90;;;;;;5051531;28;19972;-74
2023/05/21 02:30:45;;;;;;;;;;;13.00;99.90;;;;;;5039165;28;20234;-71
2023/05/21 02:33:13;;;;;;;;;;;13.00;99.90;;;;;;5039978;28;19920;-72
2023/05/21 02:35:38;;;;;;;;;;;13.00;99.90;;;;;;5039594;28;19909;-71
2023/05/21 02:38:04;;;;;;;;;;;13.00;99.90;;;;;;5039928;28;20300;-72
2023/05/21 02:40:31;;;;;;;;;;;13.00;99.90;;;;;;5055567;28;19952;-74
2023/05/21 02:42:57;;;;;;;;;;;13.00;99.90;;;;;;5035342;28;19916;-71
2023/05/21 02:45:22;;;;;;;;;;;12.90;99.90;;;;;;5052456;28;19913;-73
2023/05/21 02:47:48;;;;;;;;;;;12.90;99.90;;;;;;5051064;28;19999;-72
2023/05/21 02:50:14;;;;;;;;;;;12.90;99.90;;;;;;5039221;28;19913;-73
2023/05/21 02:52:40;;;;;;;;;;;12.90;99.90;;;;;;5038608;28;19927;-72
2023/05/21 02:55:06;;;;;;;;;;;12.90;99.90;;;;;;5038554;28;20339;-72
2023/05/21 02:57:32;;;;;;;;;;;12.90;99.90;;;;;;5037234;28;19912;-74
2023/05/21 02:59:57;;;;;;;;;;;12.90;99.90;;;;;;5035526;28;19913;-72
2023/05/21 03:02:23;;;;;;;;;;;12.80;99.90;;;;;;5034348;28;20337;-73
2023/05/21 03:04:49;;;;;;;;;;;12.90;99.90;;;;;;5053645;28;19916;-73
2023/05/21 03:07:17;;;;;;;;;;;12.90;99.90;;;;;;5037014;28;19913;-73
2023/05/21 03:09:43;;;;;;;;;;;12.90;99.90;;;;;;5053513;28;19999;-72
2023/05/21 03:12:08;;;;;;;;;;;13.00;99.90;;;;;;5039692;28;19992;-72
2023/05/21 03:14:34;;;;;;;;;;;12.90;99.90;;;;;;5037287;28;20262;-73
2023/05/21 03:17:02;;;;;;;;;;;12.90;99.90;;;;;;5050604;28;19909;-72
2023/05/21 03:19:29;;;;;;;;;;;12.90;99.90;;;;;;5052434;28;19917;-72
2023/05/21 03:21:55;;;;;;;;;;;12.90;99.90;;;;;;5052745;28;20376;-73
2023/05/21 03:24:20;;;;;;;;;;;12.90;99.90;;;;;;5039202;28;19913;-73
2023/05/21 03:26:47;;;;;;;;;;;12.90;99.90;;;;;;5036801;28;19909;-73
2023/05/21 03:29:12;;;;;;;;;;;12.90;99.90;;;;;;5052802;28;20381;-71
2023/05/21 03:31:38;;;;;;;;;;;12.90;99.90;;;;;;5037672;28;19913;-73
2023/05/21 03:34:03;;;;;;;;;;;12.80;99.90;;;;;;5039316;28;19917;-73
2023/05/21 03:36:30;;;;;;;;;;;12.80;99.90;;;;;;5040037;28;20364;-71
2023/05/21 03:38:55;;;;;;;;;;;12.80;99.90;;;;;;5056495;28;19908;-71
2023/05/21 03:41:21;;;;;;;;;;;12.80;99.90;;;;;;5041129;28;19913;-72
2023/05/21 03:43:46;;;;;;;;;;;12.70;99.90;;;;;;5039609;28;19920;-71
2023/05/21 03:46:12;;;;;;;;;;;12.80;99.90;;;;;;5055988;28;20014;-72
2023/05/21 03:48:37;;;;;;;;;;;12.70;99.90;;;;;;5055784;28;19917;-73
2023/05/21 03:51:03;;;;;;;;;;;12.70;99.90;;;;;;5038070;28;20289;-73
2023/05/21 03:53:28;;;;;;;;;;;12.70;99.90;;;;;;5055337;28;19971;-73
2023/05/21 03:55:54;;;;;;;;;;;12.70;99.90;;;;;;5039368;28;20004;-73
2023/05/21 03:58:21;;;;;;;;;;;12.70;99.90;;;;;;5056458;28;19913;-73
2023/05/21 04:00:47;;;;;;;;;;;12.80;99.90;;;;;;5041575;28;20237;-73
2023/05/21 04:03:13;;;;;;;;;;;12.80;99.90;;;;;;5054757;28;19921;-71
2023/05/21 04:05:40;;;;;;;;;;;12.80;99.90;;;;;;5039866;28;20395;-74
2023/05/21 04:08:06;;;;;;;;;;;12.90;99.90;;;;;;5039940;28;19917;-74
2023/05/21 04:10:31;;;;;;;;;;;12.90;99.90;;;;;;5040120;28;19913;-73
2023/05/21 04:12:57;;;;;;;;;;;12.90;99.90;;;;;;5041245;28;19970;-74
2023/05/21 04:15:23;;;;;;;;;;;12.90;99.90;;;;;;5039473;28;19913;-74
2023/05/21 04:17:49;;;;;;;;;;;13.00;99.90;;;;;;5039612;28;20131;-74
2023/05/21 04:20:15;;;;;;;;;;;13.00;99.90;;;;;;5040288;28;20491;-74
2023/05/21 04:22:41;;;;;;;;;;;13.10;99.90;;;;;;5054783;28;19917;-72
2023/05/21 04:25:07;;;;;;;;;;;13.10;99.90;;;;;;5040322;28;19913;-73
2023/05/21 04:27:33;;;;;;;;;;;13.10;99.90;;;;;;5040599;28;19987;-72
2023/05/21 04:29:59;;;;;;;;;;;13.10;99.90;;;;;;5038109;28;19919;-75
2023/05/21 04:32:27;;;;;;;;;;;13.10;99.90;;;;;;5040445;28;20004;-73
2023/05/21 04:34:52;;;;;;;;;;;13.10;99.90;;;;;;5039003;28;20000;-73
2023/05/21 04:37:18;;;;;;;;;;;13.10;99.90;;;;;;5040802;28;20007;-72
2023/05/21 04:39:44;;;;;;;;;;;13.20;99.90;;;;;;5054433;28;20344;-74
2023/05/21 04:42:10;;;;;;;;;;;13.20;99.90;;;;;;5054334;28;20434;-73
2023/05/21 04:44:37;;;;;;;;;;;13.30;99.90;;;;;;5037103;28;19935;-74
2023/05/21 04:47:02;;;;;;;;;;;13.30;99.90;;;;;;5054117;28;19966;-74
2023/05/21 04:49:28;;;;;;;;;;;13.30;99.90;;;;;;5054948;28;19913;-73
2023/05/21 04:51:54;;;;;;;;;;;13.40;99.90;;;;;;5039348;28;19924;-74
2023/05/21 04:54:19;;;;;;;;;;;13.40;99.90;;;;;;5021606;28;19917;-74
2023/05/21 04:56:46;;;;;;;;;;;13.40;99.90;;;;;;5056177;28;20078;-73
2023/05/21 04:59:12;;;;;;;;;;;13.50;99.90;;;;;;5038952;28;19916;-74
2023/05/21 05:01:38;;;;;;;;;;;13.50;99.90;;;;;;5039907;28;20390;-74
2023/05/21 05:04:03;;;;;;;;;;;13.50;99.90;;;;;;5037823;28;20426;-74
2023/05/21 05:06:29;;;;;;;;;;;13.50;99.90;;;;;;5053528;28;19917;-73
2023/05/21 05:08:55;;;;;;;;;;;13.60;99.90;;;;;;5055404;28;19923;-72
2023/05/21 05:11:21;;;;;;;;;;;13.70;99.90;;;;;;5053266;28;19913;-74
2023/05/21 05:13:46;;;;;;;;;;;13.70;99.90;;;;;;5055041;28;20351;-74
2023/05/21 05:16:13;;;;;;;;;;;13.70;99.90;;;;;;5053941;28;20327;-74
2023/05/21 05:18:38;;;;;;;;;;;13.80;99.90;;;;;;5037836;28;19909;-72
2023/05/21 05:21:04;;;;;;;;;;;13.80;99.90;;;;;;5039773;28;20365;-73
2023/05/21 05:23:30;;;;;;;;;;;13.90;99.90;;;;;;5054873;28;20374;-73
2023/05/21 05:25:55;;;;;;;;;;;13.90;99.90;;;;;;5054556;28;19952;-74
2023/05/21 05:28:21;;;;;;;;;;;13.90;99.90;;;;;;5052215;28;19921;-74
2023/05/21 05:30:46;;;;;;;;;;;13.90;99.90;;;;;;5037779;28;20051;-72
2023/05/21 05:33:12;;;;;;;;;;;13.90;99.90;;;;;;5038728;28;19909;-74
2023/05/21 05:35:38;;;;;;;;;;;13.90;99.90;;;;;;5052371;28;19985;-73
2023/05/21 05:38:03;;;;;;;;;;;14.00;99.90;;;;;;5040667;28;20019;-72
2023/05/21 05:40:29;;;;;;;;;;;14.00;99.90;;;;;;5038585;28;20036;-73
2023/05/21 05:42:55;;;;;;;;;;;14.00;99.90;;;;;;5038487;28;19909;-74
2023/05/21 05:45:20;;;;;;;;;;;14.00;99.90;;;;;;5038540;28;19909;-72
2023/05/21 05:47:46;;;;;;;;;;;14.00;99.90;;;;;;5054787;28;19964;-72
2023/05/21 05:50:11;;;;;;;;;;;14.10;99.90;;;;;;5054415;28;19909;-72
2023/05/21 05:52:37;;;;;;;;;;;14.10;99.90;;;;;;5037127;28;20011;-74
2023/05/21 05:55:03;;;;;;;;;;;14.20;99.90;;;;;;5053071;28;19909;-74
2023/05/21 05:57:28;;;;;;;;;;;14.20;99.90;;;;;;5041212;28;20359;-74
2023/05/21 05:59:55;;;;;;;;;;;14.20;99.90;;;;;;5039854;28;19913;-74
2023/05/21 06:02:20;;;;;;;;;;;14.10;99.90;;;;;;5051125;28;19979;-72
2023/05/21 06:04:46;;;;;;;;;;;14.20;99.90;;;;;;5055484;28;19917;-72
2023/05/21 06:07:11;;;;;;;;;;;14.30;99.90;;;;;;5055082;28;20010;-74
2023/05/21 06:09:37;;;;;;;;;;;14.30;99.90;;;;;;5051981;28;19920;-74
2023/05/21 06:12:04;;;;;;;;;;;14.40;99.90;;;;;;5055311;28;19916;-72
2023/05/21 06:14:30;;;;;;;;;;;14.50;99.90;;;;;;5056818;28;19913;-72
2023/05/21 06:16:55;;;;;;;;;;;14.60;99.90;;;;;;5038121;28;19916;-73
2023/05/21 06:19:21;;;;;;;;;;;14.60;99.90;;;;;;5037438;28;19952;-74
2023/05/21 06:21:47;;;;;;;;;;;14.70;99.90;;;;;;5037862;28;19964;-74
2023/05/21 06:24:12;;;;;;;;;;;14.80;99.90;;;;;;5052524;28;20371;-73
2023/05/21 06:26:38;;;;;;;;;;;14.90;99.90;;;;;;5041221;28;20375;-74
2023/05/21 06:29:04;;;;;;;;;;;15.10;99.90;;;;;;5043171;28;19913;-74
2023/05/21 06:31:31;;;;;;;;;;;15.10;99.90;;;;;;5040560;28;19913;-74
2023/05/21 06:33:59;;;;;;;;;;;15.10;99.90;;;;;;5033357;28;19913;-72
2023/05/21 06:36:28;;;;;;;;;;;15.20;99.90;;;;;;5053923;28;19920;-73
2023/05/21 06:38:56;;;;;;;;;;;15.30;99.90;;;;;;5036324;28;19917;-74
2023/05/21 06:41:22;;;;;;;;;;;15.40;99.90;;;;;;5032379;28;20318;-74
2023/05/21 06:43:48;;;;;;;;;;;15.40;99.90;;;;;;5035567;28;19916;-73
2023/05/21 06:46:13;;;;;;;;;;;15.50;99.90;;;;;;5035729;28;19924;-75
2023/05/21 06:48:39;;;;;;;;;;;15.50;99.90;;;;;;5034563;28;19913;-72
2023/05/21 06:51:05;;;;;;;;;;;15.50;99.90;;;;;;5036153;28;19909;-74
2023/05/21 06:53:30;;;;;;;;;;;15.60;99.90;;;;;;5036012;28;19921;-75
2023/05/21 06:55:56;;;;;;;;;;;15.60;99.90;;;;;;5053295;28;19921;-72
2023/05/21 06:58:21;;;;;;;;;;;15.70;99.90;;;;;;5034246;28;19908;-73
2023/05/21 07:00:47;;;;;;;;;;;15.70;99.90;;;;;;5038190;28;20301;-73
2023/05/21 07:03:13;;;;;;;;;;;15.80;99.90;;;;;;5040082;28;20372;-73
2023/05/21 07:05:38;;;;;;;;;;;15.90;99.90;;;;;;5041558;28;19963;-74
2023/05/21 07:08:04;;;;;;;;;;;15.90;99.90;;;;;;5042111;28;19962;-72
2023/05/21 07:10:29;;;;;;;;;;;15.90;99.90;;;;;;5041009;28;20027;-72
2023/05/21 07:12:55;;;;;;;;;;;16.00;99.90;;;;;;5040872;28;19917;-73
2023/05/21 07:15:21;;;;;;;;;;;16.10;99.90;;;;;;5038840;28;19924;-72
2023/05/21 07:17:46;;;;;;;;;;;16.20;99.90;;;;;;5039716;28;20328;-74
2023/05/21 07:20:12;;;;;;;;;;;16.20;99.90;;;;;;5041776;28;19959;-73
2023/05/21 07:22:38;;;;;;;;;;;16.20;99.90;;;;;;5040797;28;19966;-73
2023/05/21 07:25:04;;;;;;;;;;;16.20;99.90;;;;;;5056009;28;19916;-74
2023/05/21 07:27:30;;;;;;;;;;;16.30;99.90;;;;;;5035239;28;19917;-74
2023/05/21 07:29:56;;;;;;;;;;;16.40;99.90;;;;;;5038742;28;20020;-72
2023/05/21 07:32:21;;;;;;;;;;;16.40;99.90;;;;;;5036126;28;20412;-74
2023/05/21 07:34:47;;;;;;;;;;;16.40;99.90;;;;;;5038421;28;20304;-72
2023/05/21 07:37:12;;;;;;;;;;;16.50;99.90;;;;;;5038606;28;19909;-73
2023/05/21 07:39:38;;;;;;;;;;;16.50;99.90;;;;;;5054430;28;19920;-75
2023/05/21 07:42:04;;;;;;;;;;;16.60;99.90;;;;;;5037888;28;19913;-73
2023/05/21 07:44:30;;;;;;;;;;;16.60;99.90;;;;;;5039381;28;19932;-74
2023/05/21 07:46:56;;;;;;;;;;;16.70;99.90;;;;;;5036641;28;19913;-74
2023/05/21 07:49:22;;;;;;;;;;;16.80;99.90;;;;;;5053822;28;20382;-73
2023/05/21 07:51:47;;;;;;;;;;;17.00;99.90;;;;;;5056089;28;20340;-73
2023/05/21 07:54:13;;;;;;;;;;;17.10;99.90;;;;;;5043741;28;19936;-74
2023/05/21 07:56:39;;;;;;;;;;;17.10;99.90;;;;;;5045776;28;19913;-74
2023/05/21 07:59:04;;;;;;;;;;;17.30;99.90;;;;;;5044698;28;20020;-72
2023/05/21 08:01:30;;;;;;;;;;;17.30;99.90;;;;;;5041980;28;19952;-72
2023/05/21 08:03:55;;;;;;;;;;;17.40;99.90;;;;;;5056439;28;20374;-73
2023/05/21 08:06:23;;;;;;;;;;;17.40;99.90;;;;;;5038609;28;19913;-72
2023/05/21 08:08:48;;;;;;;;;;;17.40;99.90;;;;;;5057551;28;20301;-73
2023/05/21 08:11:14;;;;;;;;;;;17.50;99.90;;;;;;5058508;28;20369;-72
2023/05/21 08:13:39;;;;;;;;;;;17.60;99.90;;;;;;5042998;28;19962;-73
2023/05/21 08:16:05;;;;;;;;;;;17.60;99.90;;;;;;5039195;28;20056;-72
2023/05/21 08:18:31;;;;;;;;;;;17.60;99.90;;;;;;5043140;28;20385;-72
2023/05/21 08:20:57;;;;;;;;;;;17.70;99.90;;;;;;5040494;28;20003;-72
2023/05/21 08:23:23;;;;;;;;;;;17.80;99.90;;;;;;5055553;28;19913;-71
2023/05/21 08:25:48;;;;;;;;;;;17.80;99.90;;;;;;5054397;28;19966;-73
2023/05/21 08:28:14;;;;;;;;;;;17.90;99.90;;;;;;5043422;28;20000;-71
2023/05/21 08:30:40;;;;;;;;;;;18.00;99.90;;;;;;5041224;28;20353;-72
2023/05/21 08:33:05;;;;;;;;;;;18.10;99.90;;;;;;5041726;28;19917;-73
2023/05/21 08:35:31;;;;;;;;;;;18.10;99.90;;;;;;5041414;28;19913;-74
2023/05/21 08:37:57;;;;;;;;;;;18.20;99.90;;;;;;5038346;28;19913;-73
2023/05/21 08:40:23;;;;;;;;;;;18.20;99.90;;;;;;5036489;28;19966;-73
2023/05/21 08:42:48;;;;;;;;;;;18.20;99.90;;;;;;5057845;28;20339;-72
2023/05/21 08:45:18;;;;;;;;;;;18.30;99.90;;;;;;5040127;28;20012;-72
2023/05/21 08:47:45;;;;;;;;;;;18.30;99.90;;;;;;5042737;28;19913;-72
2023/05/21 08:50:12;;;;;;;;;;;18.30;99.90;;;;;;5041084;28;19909;-72
2023/05/21 08:52:38;;;;;;;;;;;18.40;99.90;;;;;;5041270;28;19924;-72
2023/05/21 08:55:04;;;;;;;;;;;18.40;99.90;;;;;;5040913;28;19917;-72
2023/05/21 08:57:30;;;;;;;;;;;18.50;99.90;;;;;;5038143;28;19945;-74
2023/05/21 08:59:56;;;;;;;;;;;18.50;99.90;;;;;;5040724;28;19916;-72
2023/05/21 09:02:23;;;;;;;;;;;18.50;99.90;;;;;;5041053;28;19921;-72
2023/05/21 09:04:50;;;;;;;;;;;18.70;99.90;;;;;;5056324;28;19994;-71
2023/05/21 09:07:16;;;;;;;;;;;18.70;99.90;;;;;;5039646;28;20385;-73
2023/05/21 09:09:53;;;;;;;;;;;18.70;99.90;;;;;;5042241;28;19908;-73
2023/05/21 09:12:19;;;;;;;;;;;18.80;99.90;;;;;;5037301;28;19912;-73
2023/05/21 09:14:46;;;;;;;;;;;18.80;99.90;;;;;;5058137;28;20371;-72
2023/05/21 09:17:13;;;;;;;;;;;18.80;99.90;;;;;;5044364;28;19916;-71
2023/05/21 09:19:59;;;;;;;;;;;18.70;99.90;;;;;;5039983;28;20272;-72
2023/05/21 09:22:25;;;;;;;;;;;18.70;99.90;;;;;;5054844;28;19913;-73
2023/05/21 09:24:50;;;;;;;;;;;18.90;99.90;;;;;;5055266;28;20574;-73
2023/05/21 09:27:17;;;;;;;;;;;18.90;99.90;;;;;;5054410;28;19924;-74
2023/05/21 09:29:43;;;;;;;;;;;18.90;99.90;;;;;;5036888;28;19913;-71
2023/05/21 09:32:08;;;;;;;;;;;19.10;99.90;;;;;;5055281;28;20004;-71
2023/05/21 09:34:37;;;;;;;;;;;19.20;99.90;;;;;;5054881;28;19909;-73
2023/05/21 09:37:03;;;;;;;;;;;19.20;99.90;;;;;;5039299;28;20364;-72
2023/05/21 09:39:32;;;;;;;;;;;19.30;99.90;;;;;;5041898;28;19909;-73
2023/05/21 09:41:57;;;;;;;;;;;19.40;99.90;;;;;;5038934;28;20000;-72
2023/05/21 09:44:23;;;;;;;;;;;19.40;99.90;;;;;;5037182;28;20389;-72
2023/05/21 09:46:49;;;;;;;;;;;19.40;99.90;;;;;;5053860;28;19923;-73
2023/05/21 09:49:24;;;;;;;;;;;19.50;99.90;;;;;;5038281;28;19936;-73
2023/05/21 09:51:54;;;;;;;;;;;19.70;99.90;;;;;;5037351;28;19920;-74
2023/05/21 09:54:20;;;;;;;;;;;19.70;99.90;;;;;;5036324;28;19967;-73
2023/05/21 09:56:46;;;;;;;;;;;19.80;99.90;;;;;;5038766;28;19966;-74
2023/05/21 09:59:11;;;;;;;;;;;19.90;99.90;;;;;;5055090;28;20394;-74
2023/05/21 10:01:37;;;;;;;;;;;20.00;99.90;;;;;;5038136;28;20356;-73
2023/05/21 10:04:05;;;;;;;;;;;20.20;99.90;;;;;;5037642;28;19917;-73
2023/05/21 10:06:33;;;;;;;;;;;20.40;99.90;;;;;;5053501;28;19929;-72
2023/05/21 10:09:00;;;;;;;;;;;20.50;99.90;;;;;;5052308;28;19968;-74
2023/05/21 10:11:29;;;;;;;;;;;20.60;99.90;;;;;;5038094;28;19909;-74
2023/05/21 10:14:06;;;;;;;;;;;20.60;99.90;;;;;;5054304;28;20392;-72
2023/05/21 10:16:32;;;;;;;;;;;20.60;99.90;;;;;;5037740;28;19969;-72
2023/05/21 10:18:57;;;;;;;;;;;20.60;99.90;;;;;;5038908;28;19913;-74
2023/05/21 10:21:25;;;;;;;;;;;20.70;99.90;;;;;;5058551;28;19978;-72
2023/05/21 10:23:50;;;;;;;;;;;20.70;99.90;;;;;;5053385;28;19962;-73
2023/05/21 10:26:17;;;;;;;;;;;20.80;99.90;;;;;;5038539;28;20436;-72
2023/05/21 10:28:43;;;;;;;;;;;20.90;99.90;;;;;;5040519;28;20297;-72
2023/05/21 10:31:09;;;;;;;;;;;20.90;99.90;;;;;;5053144;28;19920;-74
2023/05/21 10:33:35;;;;;;;;;;;20.90;99.90;;;;;;5053664;28;19913;-75
2023/05/21 10:36:01;;;;;;;;;;;20.90;99.90;;;;;;5037797;28;20692;-74
2023/05/21 10:38:28;;;;;;;;;;;21.10;99.90;;;;;;5039937;28;19924;-72
2023/05/21 10:40:54;;;;;;;;;;;21.20;99.90;;;;;;5057091;28;19924;-72
2023/05/21 10:43:38;;;;;;;;;;;21.10;99.90;;;;;;5057037;28;19909;-74
2023/05/21 10:46:24;;;;;;;;;;;21.30;99.90;;;;;;5043482;28;19913;-74
2023/05/21 10:48:50;;;;;;;;;;;21.30;99.90;;;;;;5041548;28;19958;-72
2023/05/21 10:51:22;;;;;;;;;;;21.30;99.90;;;;;;5057359;28;20343;-72
2023/05/21 10:53:51;;;;;;;;;;;21.40;99.90;;;;;;5054914;28;19936;-74
2023/05/21 10:56:22;;;;;;;;;;;21.50;99.90;;;;;;5038501;28;19921;-72
2023/05/21 10:59:07;;;;;;;;;;;21.60;99.90;;;;;;5056826;28;20380;-74
2023/05/21 11:01:35;;;;;;;;;;;21.70;99.90;;;;;;5041225;28;19954;-74
2023/05/21 11:04:01;;;;;;;;;;;21.90;99.90;;;;;;5055619;28;20003;-72
2023/05/21 11:06:26;;;;;;;;;;;22.10;99.90;;;;;;5039616;28;20007;-74
2023/05/21 11:08:52;;;;;;;;;;;22.10;99.90;;;;;;5039565;28;20006;-73
2023/05/21 11:11:37;;;;;;;;;;;22.20;99.90;;;;;;5038639;28;19913;-72
2023/05/21 11:14:23;;;;;;;;;;;22.50;99.90;;;;;;5054898;28;19916;-74
2023/05/21 11:16:49;;;;;;;;;;;22.80;99.90;;;;;;5054314;28;19935;-72
2023/05/21 11:19:15;;;;;;;;;;;23.90;99.90;;;;;;5042231;28;19917;-72
2023/05/21 11:21:41;;;;;;;;;;;25.30;99.90;;;;;;5042976;28;19971;-74
2023/05/21 11:24:07;;;;;;;;;;;26.50;99.60;;;;;;5057118;28;20388;-73
2023/05/21 11:26:45;;;;;;;;;;;27.20;97.50;;;;;;5055659;28;20368;-73
2023/05/21 11:29:11;;;;;;;;;;;28.30;95.40;;;;;;5055422;28;20838;-73
2023/05/21 11:31:37;;;;;;;;;;;28.80;93.20;;;;;;5040644;28;19920;-73
2023/05/21 11:34:15;;;;;;;;;;;29.10;90.40;;;;;;5040632;28;20369;-74
2023/05/21 11:36:41;;;;;;;;;;;30.10;88.10;;;;;;5058690;28;19913;-76
2023/05/21 11:39:07;;;;;;;;;;;31.20;81.80;;;;;;5057713;28;20466;-75
2023/05/21 11:41:48;;;;;;;;;;;31.40;76.20;;;;;;5056042;28;20405;-74
2023/05/21 11:44:14;;;;;;;;;;;31.80;72.50;;;;;;5037695;28;19913;-73
2023/05/21 11:46:41;;;;;;;;;;;31.60;70.70;;;;;;5056588;28;20388;-73
2023/05/21 11:49:07;;;;;;;;;;;31.70;68.70;;;;;;5039390;28;19937;-75
2023/05/21 11:51:33;;;;;;;;;;;31.50;68.10;;;;;;5055869;28;19920;-74
2023/05/21 11:54:00;;;;;;;;;;;31.50;68.70;;;;;;5040230;28;19971;-74
2023/05/21 11:56:25;;;;;;;;;;;31.60;68.50;;;;;;5040239;28;19979;-73
2023/05/21 11:58:53;;;;;;;;;;;31.80;68.00;;;;;;5055036;28;20380;-72
2023/05/21 12:01:23;;;;;;;;;;;31.10;67.30;;;;;;5041062;28;19924;-73
2023/05/21 12:03:49;;;;;;;;;;;29.90;69.60;;;;;;5053525;28;19915;-74
2023/05/21 12:06:16;;;;;;;;;;;30.20;70.80;;;;;;5038876;28;19913;-72
2023/05/21 12:08:42;;;;;;;;;;;29.70;70.90;;;;;;5039473;28;19920;-73
2023/05/21 12:11:07;;;;;;;;;;;29.70;72.50;;;;;;5037818;28;19917;-74
2023/05/21 12:13:33;;;;;;;;;;;29.40;73.70;;;;;;5055788;28;19932;-73
2023/05/21 12:15:58;;;;;;;;;;;29.30;72.90;;;;;;5038865;28;19917;-74
2023/05/21 12:18:25;;;;;;;;;;;29.20;73.50;;;;;;5056888;28;19909;-74
2023/05/21 12:20:50;;;;;;;;;;;29.40;72.90;;;;;;5054800;28;19917;-72
2023/05/21 12:23:19;;;;;;;;;;;29.10;72.50;;;;;;5039328;28;19916;-72
2023/05/21 12:25:45;;;;;;;;;;;29.10;72.90;;;;;;5037832;28;19917;-72
2023/05/21 12:28:11;;;;;;;;;;;28.40;74.50;;;;;;5039892;28;19913;-71
2023/05/21 12:30:36;;;;;;;;;;;27.90;76.50;;;;;;5039895;28;19956;-72
2023/05/21 12:33:03;;;;;;;;;;;27.50;77.90;;;;;;5054908;28;19920;-72
2023/05/21 12:35:29;;;;;;;;;;;27.30;78.40;;;;;;5052847;28;19916;-74
2023/05/21 12:37:55;;;;;;;;;;;27.50;78.80;;;;;;5038677;28;19984;-74
2023/05/21 12:40:21;;;;;;;;;;;27.60;79.20;;;;;;5038293;28;19917;-74
2023/05/21 12:42:46;;;;;;;;;;;27.70;79.30;;;;;;5056738;28;19920;-73
2023/05/21 12:45:17;;;;;;;;;;;27.50;80.10;;;;;;5054123;28;19913;-73
2023/05/21 12:47:46;;;;;;;;;;;27.60;80.00;;;;;;5053364;28;20356;-74
2023/05/21 12:50:12;;;;;;;;;;;27.50;80.50;;;;;;5054748;28;19925;-73
2023/05/21 12:52:39;;;;;;;;;;;27.70;80.10;;;;;;5055321;28;19923;-72
2023/05/21 12:55:04;;;;;;;;;;;27.20;80.70;;;;;;5052781;28;19916;-72
2023/05/21 12:57:39;;;;;;;;;;;27.10;81.70;;;;;;5037280;28;20300;-75
2023/05/21 13:00:11;;;;;;;;;;;26.80;82.70;;;;;;5039431;28;19909;-73
2023/05/21 13:02:40;;;;;;;;;;;26.00;85.40;;;;;;5042442;28;20071;-74
2023/05/21 13:05:14;;;;;;;;;;;26.10;86.20;;;;;;5056725;28;19916;-73
2023/05/21 13:07:40;;;;;;;;;;;26.20;85.90;;;;;;5054267;28;20023;-73
2023/05/21 13:10:06;;;;;;;;;;;26.30;86.70;;;;;;5039587;28;20027;-74
2023/05/21 13:12:32;;;;;;;;;;;26.40;86.30;;;;;;5036585;28;19921;-73
2023/05/21 13:14:58;;;;;;;;;;;26.50;86.40;;;;;;5055255;28;19916;-76
2023/05/21 13:17:24;;;;;;;;;;;26.30;86.20;;;;;;5037003;28;19912;-74
2023/05/21 13:20:08;;;;;;;;;;;26.20;87.40;;;;;;5038872;28;19909;-74
2023/05/21 13:22:37;;;;;;;;;;;26.10;88.00;;;;;;5055133;28;19936;-74
2023/05/21 13:25:03;;;;;;;;;;;25.90;88.90;;;;;;5038398;28;19916;-72
2023/05/21 13:27:29;;;;;;;;;;;25.40;90.30;;;;;;5038397;28;20777;-74
2023/05/21 13:29:55;;;;;;;;;;;25.30;91.00;;;;;;5054138;28;20303;-74
2023/05/21 13:32:20;;;;;;;;;;;25.00;91.90;;;;;;5038967;28;20276;-74
2023/05/21 13:34:46;;;;;;;;;;;25.20;92.10;;;;;;5038914;28;19920;-73
2023/05/21 13:37:12;;;;;;;;;;;25.30;92.30;;;;;;5038466;28;19909;-72
2023/05/21 13:39:38;;;;;;;;;;;25.40;92.10;;;;;;5038046;28;19966;-74
2023/05/21 13:42:04;;;;;;;;;;;25.50;92.30;;;;;;5037630;28;19913;-72
2023/05/21 13:44:34;;;;;;;;;;;25.60;92.30;;;;;;5052745;28;19917;-74
2023/05/21 13:47:01;;;;;;;;;;;25.40;92.50;;;;;;5052293;28;19919;-74
2023/05/21 13:49:26;;;;;;;;;;;25.70;92.50;;;;;;5052451;28;19914;-73
2023/05/21 13:51:52;;;;;;;;;;;25.80;92.60;;;;;;5055393;28;19982;-73
2023/05/21 13:54:18;;;;;;;;;;;26.00;92.30;;;;;;5038293;28;20499;-77
2023/05/21 13:56:46;;;;;;;;;;;26.10;92.00;;;;;;5054992;28;19909;-74
2023/05/21 13:59:11;;;;;;;;;;;26.30;91.70;;;;;;5037958;28;19975;-74
2023/05/21 14:01:37;;;;;;;;;;;26.20;91.90;;;;;;5037089;28;20357;-72
2023/05/21 14:04:04;;;;;;;;;;;25.90;92.00;;;;;;5040172;28;19955;-72
2023/05/21 14:06:30;;;;;;;;;;;25.60;92.20;;;;;;5038049;28;19940;-72
2023/05/21 14:08:57;;;;;;;;;;;25.80;92.20;;;;;;5038589;28;19922;-72
2023/05/21 14:11:23;;;;;;;;;;;25.70;92.20;;;;;;5039821;28;20007;-74
2023/05/21 14:13:48;;;;;;;;;;;25.70;92.10;;;;;;5037675;28;19964;-72